Time;durP1;ratioP1;P1;durP2;ratioP2;P2;SDS_P1;SDS_P2;PMS_P1;PMS_P2;Temp;Humidity;BMP_temperature;BMP_pressure;BME280_temperature;BME280_humidity;BME280_pressure;Samples;Min_cycle;Max_cycle;Signal;HPM_P1;HPM_P2
2022/05/15 00:02:28;;;;;;;8.68;3.83;;;;;;;-145.23;100.00;58621.06;5079300;28;20245;-53
2022/05/15 00:04:55;;;;;;;5.10;3.90;;;;;;;-145.23;100.00;58621.06;5080597;28;20449;-52
2022/05/15 00:07:23;;;;;;;8.02;3.80;;;;;;;-145.23;100.00;58621.06;5071970;28;20238;-53
2022/05/15 00:09:49;;;;;;;7.18;3.75;;;;;;;-145.23;100.00;58621.06;5074546;28;20695;-52
2022/05/15 00:12:17;;;;;;;11.25;4.47;;;;;;;-145.23;100.00;58621.06;5082366;27;20230;-53
2022/05/15 00:14:43;;;;;;;9.85;4.63;;;;;;;-145.23;100.00;58621.06;5071361;28;20606;-50
2022/05/15 00:17:10;;;;;;;9.45;4.93;;;;;;;-145.23;100.00;58621.06;5082923;28;20226;-52
2022/05/15 00:19:36;;;;;;;8.07;4.78;;;;;;;-145.23;100.00;58621.06;5072839;28;20226;-51
2022/05/15 00:22:03;;;;;;;6.50;4.60;;;;;;;-145.23;100.00;58621.06;5084839;28;20766;-52
2022/05/15 00:24:31;;;;;;;10.48;6.45;;;;;;;-145.23;100.00;58621.06;5096576;28;20234;-52
2022/05/15 00:26:57;;;;;;;7.85;6.78;;;;;;;-145.23;100.00;58621.06;5094564;28;20227;-51
2022/05/15 00:29:24;;;;;;;9.13;7.70;;;;;;;-145.23;100.00;58621.06;5095870;28;20287;-52
2022/05/15 00:31:50;;;;;;;11.98;10.65;;;;;;;-145.23;100.00;58621.06;5095339;28;20226;-53
2022/05/15 00:34:16;;;;;;;15.25;10.35;;;;;;;-145.23;100.00;58621.06;5097243;28;20230;-52
2022/05/15 00:36:43;;;;;;;20.92;13.73;;;;;;;-145.23;100.00;58621.06;5107613;28;20228;-51
2022/05/15 00:39:10;;;;;;;17.88;14.48;;;;;;;-145.23;100.00;58621.06;5082303;27;20311;-52
2022/05/15 00:41:38;;;;;;;16.70;13.77;;;;;;;-145.23;100.00;58621.06;5098138;28;20712;-51
2022/05/15 00:44:06;;;;;;;12.18;10.95;;;;;;;-145.23;100.00;58621.06;5078384;28;20276;-52
2022/05/15 00:46:36;;;;;;;13.90;8.93;;;;;;;-145.23;100.00;58621.06;5083003;28;20227;-54
2022/05/15 00:49:06;;;;;;;7.63;6.90;;;;;;;-145.23;100.00;58621.06;5069556;28;20311;-52
2022/05/15 00:51:37;;;;;;;10.38;6.70;;;;;;;-145.23;100.00;58621.06;5078543;28;20239;-53
2022/05/15 00:54:07;;;;;;;11.68;7.68;;;;;;;-145.23;100.00;58621.06;5072214;28;20218;-52
2022/05/15 00:56:38;;;;;;;10.73;6.90;;;;;;;-145.23;100.00;58621.06;5071216;28;20231;-52
2022/05/15 00:59:09;;;;;;;9.02;7.80;;;;;;;-145.23;100.00;58621.06;5069817;28;20226;-52
2022/05/15 01:01:35;;;;;;;9.25;8.35;;;;;;;-145.23;100.00;58621.06;5080960;28;20238;-53
2022/05/15 01:04:02;;;;;;;10.75;9.65;;;;;;;-145.23;100.00;58621.06;5074613;28;20258;-52
2022/05/15 01:06:30;;;;;;;11.68;9.75;;;;;;;-145.23;100.00;58621.06;5075948;28;20219;-53
2022/05/15 01:08:56;;;;;;;13.23;10.60;;;;;;;-145.23;100.00;58621.06;5076700;28;20242;-52
2022/05/15 01:11:24;;;;;;;15.98;10.65;;;;;;;-145.23;100.00;58621.06;5078910;28;20264;-51
2022/05/15 01:13:53;;;;;;;16.83;10.60;;;;;;;-145.23;100.00;58621.06;5085048;28;20974;-52
2022/05/15 01:16:22;;;;;;;11.48;8.75;;;;;;;-145.23;100.00;58621.06;5078402;28;20241;-52
2022/05/15 01:18:48;;;;;;;10.35;7.30;;;;;;;-145.23;100.00;58621.06;5079453;28;20295;-56
2022/05/15 01:21:26;;;;;;;11.27;7.93;;;;;;;-145.23;100.00;58621.06;5075821;28;20678;-52
2022/05/15 01:23:53;;;;;;;13.15;8.95;;;;;;;-145.23;100.00;58621.06;5077786;28;20254;-52
2022/05/15 01:26:20;;;;;;;13.18;9.57;;;;;;;-145.23;100.00;58621.06;5086482;28;20315;-54
2022/05/15 01:28:46;;;;;;;12.65;9.43;;;;;;;-145.23;100.00;58621.06;5084211;28;20307;-54
2022/05/15 01:31:13;;;;;;;10.13;9.13;;;;;;;-145.23;100.00;58621.06;5086595;28;20233;-52
2022/05/15 01:33:40;;;;;;;11.10;7.78;;;;;;;-145.23;100.00;58621.06;5094542;28;20272;-53
2022/05/15 01:36:07;;;;;;;10.30;6.10;;;;;;;-145.23;100.00;58621.06;5090819;28;20388;-52
2022/05/15 01:38:35;;;;;;;5.57;5.07;;;;;;;-145.23;100.00;58621.06;5093784;27;20238;-53
2022/05/15 01:41:01;;;;;;;7.30;5.13;;;;;;;-145.23;100.00;58621.06;5085832;28;20226;-53
2022/05/15 01:43:28;;;;;;;7.40;3.92;;;;;;;-145.23;100.00;58621.06;5085049;28;20230;-52
2022/05/15 01:45:54;;;;;;;6.28;3.83;;;;;;;-145.23;100.00;58621.06;5085976;28;20258;-53
2022/05/15 01:48:20;;;;;;;11.63;4.53;;;;;;;-145.23;100.00;58621.06;5082199;28;20227;-52
2022/05/15 01:50:47;;;;;;;7.20;3.42;;;;;;;-145.23;100.00;58621.06;5091611;28;20291;-51
2022/05/15 01:53:13;;;;;;;4.65;4.07;;;;;;;-145.23;100.00;58621.06;5084010;28;20304;-52
2022/05/15 01:55:41;;;;;;;7.45;4.05;;;;;;;-145.23;100.00;58621.06;5080873;28;20229;-51
2022/05/15 01:58:09;;;;;;;6.97;4.82;;;;;;;-145.23;100.00;58621.06;5086875;28;20226;-52
2022/05/15 02:00:36;;;;;;;8.38;5.43;;;;;;;-145.23;100.00;58621.06;5083237;28;20234;-52
2022/05/15 02:03:03;;;;;;;8.23;5.57;;;;;;;-145.23;100.00;58621.06;5091075;28;21018;-53
2022/05/15 02:05:30;;;;;;;6.00;4.82;;;;;;;-145.23;100.00;58621.06;5090497;28;20230;-54
2022/05/15 02:07:56;;;;;;;10.55;5.35;;;;;;;-145.23;100.00;58621.06;5086941;28;20714;-52
2022/05/15 02:10:22;;;;;;;10.00;6.03;;;;;;;-145.23;100.00;58621.06;5097130;28;20275;-54
2022/05/15 02:12:50;;;;;;;7.78;5.68;;;;;;;-145.23;100.00;58621.06;5104549;28;20730;-53
2022/05/15 02:15:17;;;;;;;7.22;5.60;;;;;;;-145.23;100.00;58621.06;5107396;28;20233;-53
2022/05/15 02:17:43;;;;;;;11.35;5.40;;;;;;;-145.23;100.00;58621.06;5106359;28;20229;-53
2022/05/15 02:20:11;;;;;;;9.82;5.50;;;;;;;-145.23;100.00;58621.06;5100058;27;20230;-53
2022/05/15 02:22:38;;;;;;;11.25;4.97;;;;;;;-145.23;100.00;58621.06;5102855;28;20221;-53
2022/05/15 02:25:06;;;;;;;6.23;3.83;;;;;;;-145.23;100.00;58621.06;5100006;27;20236;-51
2022/05/15 02:27:32;;;;;;;9.88;4.00;;;;;;;-145.23;100.00;58621.06;5100177;28;20373;-51
2022/05/15 02:30:00;;;;;;;5.70;3.55;;;;;;;-145.23;100.00;58621.06;5101419;27;20226;-51
2022/05/15 02:32:27;;;;;;;5.43;3.72;;;;;;;-145.23;100.00;58621.06;5104979;28;20346;-53
2022/05/15 02:34:53;;;;;;;7.55;4.15;;;;;;;-145.23;100.00;58621.06;5092728;28;20309;-53
2022/05/15 02:37:19;;;;;;;6.30;4.28;;;;;;;-145.23;100.00;58621.06;5107125;28;20263;-52
2022/05/15 02:39:46;;;;;;;6.53;4.43;;;;;;;-145.23;100.00;58621.06;5093289;28;20251;-53
2022/05/15 02:42:12;;;;;;;5.07;4.20;;;;;;;-145.23;100.00;58621.06;5098341;28;20798;-53
2022/05/15 02:44:39;;;;;;;5.57;4.43;;;;;;;-145.23;100.00;58621.06;5097558;27;20287;-53
2022/05/15 02:47:07;;;;;;;7.47;5.40;;;;;;;-145.23;100.00;58621.06;5097851;28;20251;-53
2022/05/15 02:52:17;;;;;;;8.20;4.55;;;;;;;-145.23;100.00;58621.06;5099436;28;20260;-51
2022/05/15 02:54:44;;;;;;;9.90;5.07;;;;;;;-145.23;100.00;58621.06;5095722;28;20226;-51
2022/05/15 02:57:11;;;;;;;7.95;4.93;;;;;;;-145.23;100.00;58621.06;5071142;28;20691;-51
2022/05/15 02:59:37;;;;;;;7.53;4.53;;;;;;;-145.23;100.00;58621.06;5069594;28;20816;-52
2022/05/15 03:02:04;;;;;;;7.77;5.10;;;;;;;-145.23;100.00;58621.06;5091449;28;20722;-52
2022/05/15 03:04:32;;;;;;;6.70;4.68;;;;;;;-145.23;100.00;58621.06;5088724;28;20296;-53
2022/05/15 03:06:59;;;;;;;6.82;4.07;;;;;;;-145.23;100.00;58621.06;5078237;28;20318;-51
2022/05/15 03:09:25;;;;;;;7.18;4.05;;;;;;;-145.23;100.00;58621.06;5083912;28;20712;-52
2022/05/15 03:11:52;;;;;;;7.67;4.47;;;;;;;-145.23;100.00;58621.06;5076804;28;20283;-51
2022/05/15 03:14:18;;;;;;;7.20;3.93;;;;;;;-145.23;100.00;58621.06;5077741;28;20277;-52
2022/05/15 03:16:44;;;;;;;7.37;4.83;;;;;;;-145.23;100.00;58621.06;5085345;28;20256;-54
2022/05/15 03:19:11;;;;;;;6.40;3.80;;;;;;;-145.23;100.00;58621.06;5073385;28;20262;-52
2022/05/15 03:21:39;;;;;;;5.03;3.93;;;;;;;-145.23;100.00;58621.06;5080559;28;20238;-53
2022/05/15 03:24:07;;;;;;;5.27;3.80;;;;;;;-145.23;100.00;58621.06;5078026;28;20231;-52
2022/05/15 03:26:36;;;;;;;6.13;4.10;;;;;;;-145.23;100.00;58621.06;5078322;28;20245;-51
2022/05/15 03:29:03;;;;;;;10.07;4.80;;;;;;;-145.23;100.00;58621.06;5075668;28;20262;-53
2022/05/15 03:31:30;;;;;;;7.10;3.73;;;;;;;-145.23;100.00;58621.06;5072393;28;20238;-52
2022/05/15 03:33:56;;;;;;;7.70;4.23;;;;;;;-145.23;100.00;58621.06;5076989;28;20250;-52
2022/05/15 03:36:23;;;;;;;7.97;3.30;;;;;;;-145.23;100.00;58621.06;5076278;28;20737;-51
2022/05/15 03:38:52;;;;;;;6.53;4.00;;;;;;;-145.23;100.00;58621.06;5086888;28;20235;-54
2022/05/15 03:41:18;;;;;;;5.77;4.20;;;;;;;-145.23;100.00;58621.06;5083071;28;20245;-52
2022/05/15 03:43:44;;;;;;;6.53;4.00;;;;;;;-145.23;100.00;58621.06;5078321;28;20318;-53
2022/05/15 03:46:11;;;;;;;8.43;3.33;;;;;;;-145.23;100.00;58621.06;5084916;28;20243;-51
2022/05/15 03:48:37;;;;;;;4.03;3.60;;;;;;;-145.23;100.00;58621.06;5078588;28;20223;-53
2022/05/15 03:51:05;;;;;;;8.67;3.83;;;;;;;-145.23;100.00;58621.06;5072506;28;20291;-52
2022/05/15 03:53:32;;;;;;;6.40;3.83;;;;;;;-145.23;100.00;58621.06;5081404;28;20230;-52
2022/05/15 03:56:00;;;;;;;3.87;3.47;;;;;;;-145.23;100.00;58621.06;5087604;28;20237;-51
2022/05/15 03:58:34;;;;;;;6.07;3.53;;;;;;;-145.23;100.00;58621.06;5083745;28;20234;-51
2022/05/15 04:01:01;;;;;;;8.43;4.10;;;;;;;-145.23;100.00;58621.06;5099077;28;20312;-53
2022/05/15 04:03:27;;;;;;;9.97;4.23;;;;;;;-145.23;100.00;58621.06;5108046;27;20229;-53
2022/05/15 04:05:53;;;;;;;5.83;3.57;;;;;;;-145.23;100.00;58621.06;5102687;28;20787;-53
2022/05/15 04:08:20;;;;;;;8.03;4.07;;;;;;;-145.23;100.00;58621.06;5104511;28;20245;-51
2022/05/15 04:10:46;;;;;;;6.07;3.40;;;;;;;-145.23;100.00;58621.06;5108115;28;20237;-52
2022/05/15 04:13:15;;;;;;;6.07;3.28;;;;;;;-145.23;100.00;58621.06;5106243;28;20229;-54
2022/05/15 04:15:42;;;;;;;6.40;3.60;;;;;;;-145.23;100.00;58621.06;5105066;27;20222;-51
2022/05/15 04:18:10;;;;;;;7.10;3.67;;;;;;;-145.23;100.00;58621.06;5109246;28;20278;-52
2022/05/15 04:20:37;;;;;;;5.93;3.97;;;;;;;-145.23;100.00;58621.06;5105924;28;20727;-52
2022/05/15 04:23:04;;;;;;;4.93;3.20;;;;;;;-145.23;100.00;58621.06;5105847;28;20238;-55
2022/05/15 04:25:30;;;;;;;6.07;3.10;;;;;;;-145.23;100.00;58621.06;5096903;27;20245;-51
2022/05/15 04:27:57;;;;;;;5.23;2.63;;;;;;;-145.23;100.00;58621.06;5109854;27;20276;-53
2022/05/15 04:30:26;;;;;;;6.17;3.40;;;;;;;-145.23;100.00;58621.06;5102544;27;20280;-52
2022/05/15 04:32:53;;;;;;;5.50;3.17;;;;;;;-145.23;100.00;58621.06;5106894;28;20772;-52
2022/05/15 04:35:19;;;;;;;7.27;3.07;;;;;;;-145.23;100.00;58621.06;5102540;27;20286;-52
2022/05/15 04:37:46;;;;;;;4.00;3.07;;;;;;;-145.23;100.00;58621.06;5105916;27;20562;-53
2022/05/15 04:40:14;;;;;;;7.20;3.08;;;;;;;-145.23;100.00;58621.06;5104169;28;20633;-51
2022/05/15 04:42:40;;;;;;;2.90;2.67;;;;;;;-145.23;100.00;58621.06;5098395;28;20232;-53
2022/05/15 04:45:08;;;;;;;6.43;3.13;;;;;;;-145.23;100.00;58621.06;5105560;27;20274;-53
2022/05/15 04:47:36;;;;;;;5.25;3.00;;;;;;;-145.23;100.00;58621.06;5099100;27;20249;-52
2022/05/15 04:50:02;;;;;;;3.30;2.63;;;;;;;-145.23;100.00;58621.06;5102830;27;20241;-51
2022/05/15 04:52:29;;;;;;;5.53;2.72;;;;;;;-145.23;100.00;58621.06;5089495;28;20288;-52
2022/05/15 04:54:55;;;;;;;5.47;2.83;;;;;;;-145.23;100.00;58621.06;5098016;28;20322;-51
2022/05/15 04:57:21;;;;;;;4.00;2.40;;;;;;;-145.23;100.00;58621.06;5106631;27;20245;-51
2022/05/15 04:59:48;;;;;;;3.55;2.38;;;;;;;-145.23;100.00;58621.06;5103696;27;20311;-53
2022/05/15 05:02:14;;;;;;;3.53;2.00;;;;;;;-145.23;100.00;58621.06;5106769;28;20250;-52
2022/05/15 05:04:42;;;;;;;3.97;2.45;;;;;;;-145.23;100.00;58621.06;5104851;28;20849;-52
2022/05/15 05:07:08;;;;;;;3.45;2.42;;;;;;;-145.23;100.00;58621.06;5102083;28;20870;-52
2022/05/15 05:09:35;;;;;;;3.83;2.13;;;;;;;-145.23;100.00;58621.06;5097146;28;20288;-53
2022/05/15 05:12:01;;;;;;;2.60;2.03;;;;;;;-145.23;100.00;58621.06;5100478;27;20229;-53
2022/05/15 05:14:28;;;;;;;5.07;1.83;;;;;;;-145.23;100.00;58621.06;5102777;28;20718;-51
2022/05/15 05:16:54;;;;;;;3.78;2.22;;;;;;;-145.23;100.00;58621.06;5104415;28;20234;-53
2022/05/15 05:19:21;;;;;;;3.40;2.03;;;;;;;-145.23;100.00;58621.06;5106525;27;20280;-51
2022/05/15 05:21:49;;;;;;;5.03;1.92;;;;;;;-145.23;100.00;58621.06;5107238;28;20261;-54
2022/05/15 05:24:15;;;;;;;2.33;1.65;;;;;;;-145.23;100.00;58621.06;5102304;28;20226;-52
2022/05/15 05:26:41;;;;;;;4.28;2.10;;;;;;;-145.23;100.00;58621.06;5106929;27;20241;-51
2022/05/15 05:29:08;;;;;;;4.15;1.92;;;;;;;-145.23;100.00;58621.06;5099973;27;20306;-51
2022/05/15 05:31:34;;;;;;;3.25;1.58;;;;;;;-145.23;100.00;58621.06;5097601;27;20786;-54
2022/05/15 05:34:01;;;;;;;6.88;1.98;;;;;;;-145.23;100.00;58621.06;5103797;28;20267;-53
2022/05/15 05:36:27;;;;;;;3.75;1.90;;;;;;;-145.23;100.00;58621.06;5097690;28;20992;-52
2022/05/15 05:38:55;;;;;;;3.72;2.00;;;;;;;-145.23;100.00;58621.06;5106471;27;20576;-51
2022/05/15 05:41:21;;;;;;;4.32;1.83;;;;;;;-145.23;100.00;58621.06;5099386;28;20234;-52
2022/05/15 05:43:47;;;;;;;2.15;1.73;;;;;;;-145.23;100.00;58621.06;5106850;28;20234;-53
2022/05/15 05:46:14;;;;;;;1.83;1.25;;;;;;;-145.23;100.00;58621.06;5100865;28;20302;-51
2022/05/15 05:48:45;;;;;;;4.97;2.15;;;;;;;-145.23;100.00;58621.06;5102666;28;20254;-52
2022/05/15 05:51:12;;;;;;;5.32;2.00;;;;;;;-145.23;100.00;58621.06;5100726;28;20237;-51
2022/05/15 05:53:38;;;;;;;3.03;1.73;;;;;;;-145.23;100.00;58621.06;5107520;28;20257;-52
2022/05/15 05:56:06;;;;;;;3.75;1.98;;;;;;;-145.23;100.00;58621.06;5102534;28;20272;-52
2022/05/15 05:58:32;;;;;;;2.38;1.42;;;;;;;-145.23;100.00;58621.06;5095129;27;20287;-52
2022/05/15 06:00:59;;;;;;;2.67;1.42;;;;;;;-145.23;100.00;58621.06;5100101;28;20287;-51
2022/05/15 06:06:09;;;;;;;3.90;1.60;;;;;;;-145.23;100.00;58621.06;5096121;28;20293;-51
2022/05/15 06:08:36;;;;;;;5.00;2.00;;;;;;;-145.23;100.00;58621.06;5097938;28;20279;-52
2022/05/15 06:11:02;;;;;;;6.43;1.85;;;;;;;-145.23;100.00;58621.06;5101303;28;20222;-52
2022/05/15 06:13:30;;;;;;;3.75;1.15;;;;;;;-145.23;100.00;58621.06;5104013;28;20253;-52
2022/05/15 06:15:56;;;;;;;3.42;1.90;;;;;;;-145.23;100.00;58621.06;5103843;27;20252;-53
2022/05/15 06:18:23;;;;;;;4.43;2.17;;;;;;;-145.23;100.00;58621.06;5103807;27;20226;-52
2022/05/15 06:20:49;;;;;;;5.93;2.67;;;;;;;-145.23;100.00;58621.06;5097092;28;20847;-52
2022/05/15 06:23:15;;;;;;;4.00;1.50;;;;;;;-145.23;100.00;58621.06;5104235;28;20282;-53
2022/05/15 06:25:42;;;;;;;5.07;1.48;;;;;;;-145.23;100.00;58621.06;5102328;27;20265;-53
2022/05/15 06:28:08;;;;;;;2.08;1.23;;;;;;;-145.23;100.00;58621.06;5102534;28;20245;-52
2022/05/15 06:30:36;;;;;;;4.38;1.60;;;;;;;-145.23;100.00;58621.06;5103074;28;20817;-52
2022/05/15 06:33:03;;;;;;;6.30;1.73;;;;;;;-145.23;100.00;58621.06;5095681;28;20267;-52
2022/05/15 06:35:29;;;;;;;3.72;1.45;;;;;;;-145.23;100.00;58621.06;5103501;27;20685;-52
2022/05/15 06:37:55;;;;;;;7.22;2.25;;;;;;;-145.23;100.00;58621.06;5095888;28;20277;-53
2022/05/15 06:40:22;;;;;;;7.90;1.65;;;;;;;-145.23;100.00;58621.06;5098237;28;20276;-52
2022/05/15 06:42:48;;;;;;;2.75;1.67;;;;;;;-145.23;100.00;58621.06;5099490;28;20610;-53
2022/05/15 06:45:15;;;;;;;3.83;1.38;;;;;;;-145.23;100.00;58621.06;5098993;27;20315;-51
2022/05/15 06:47:42;;;;;;;6.05;1.83;;;;;;;-145.23;100.00;58621.06;5104997;28;20237;-52
2022/05/15 06:50:10;;;;;;;3.13;1.40;;;;;;;-145.23;100.00;58621.06;5099913;28;20696;-53
2022/05/15 06:52:37;;;;;;;2.25;1.70;;;;;;;-145.23;100.00;58621.06;5099774;28;20234;-53
2022/05/15 06:55:04;;;;;;;3.25;2.08;;;;;;;-145.23;100.00;58621.06;5105731;28;20230;-51
2022/05/15 06:57:31;;;;;;;2.85;1.75;;;;;;;-145.23;100.00;58621.06;5106645;28;20307;-52
2022/05/15 06:59:57;;;;;;;1.88;1.58;;;;;;;-145.23;100.00;58621.06;5104304;28;20684;-52
2022/05/15 07:02:25;;;;;;;6.65;1.80;;;;;;;-145.23;100.00;58621.06;5096784;28;20273;-52
2022/05/15 07:04:53;;;;;;;3.42;1.90;;;;;;;-145.23;100.00;58621.06;5100336;27;20594;-53
2022/05/15 07:07:19;;;;;;;3.60;2.17;;;;;;;-145.23;100.00;58621.06;5100275;28;20256;-52
2022/05/15 07:09:47;;;;;;;4.15;1.60;;;;;;;-145.23;100.00;58621.06;5103832;28;20221;-51
2022/05/15 07:12:13;;;;;;;3.53;1.67;;;;;;;-145.23;100.00;58621.06;5105201;28;20234;-52
2022/05/15 07:14:40;;;;;;;4.82;1.80;;;;;;;-145.23;100.00;58621.06;5098239;28;20257;-52
2022/05/15 07:17:06;;;;;;;2.55;1.40;;;;;;;-145.23;100.00;58621.06;5100741;27;20253;-52
2022/05/15 07:19:34;;;;;;;3.95;1.45;;;;;;;-145.23;100.00;58621.06;5097872;28;20676;-52
2022/05/15 07:22:02;;;;;;;4.15;1.67;;;;;;;-145.23;100.00;58621.06;5101107;28;20279;-52
2022/05/15 07:24:28;;;;;;;2.20;1.42;;;;;;;-145.23;100.00;58621.06;5098807;28;20279;-51
2022/05/15 07:26:54;;;;;;;3.47;1.60;;;;;;;-145.23;100.00;58621.06;5097025;28;20245;-52
2022/05/15 07:29:24;;;;;;;1.58;1.40;;;;;;;-145.23;100.00;58621.06;5100090;27;20320;-52
2022/05/15 07:31:51;;;;;;;4.18;1.27;;;;;;;-145.23;100.00;58621.06;5101160;28;20229;-54
2022/05/15 07:34:17;;;;;;;4.00;1.80;;;;;;;-145.23;100.00;58621.06;5100107;28;20225;-51
2022/05/15 07:36:44;;;;;;;4.22;1.60;;;;;;;-145.23;100.00;58621.06;5103099;28;20256;-52
2022/05/15 07:39:12;;;;;;;5.43;1.75;;;;;;;-145.23;100.00;58621.06;5103205;28;26130;-52
2022/05/15 07:41:39;;;;;;;3.17;1.90;;;;;;;-145.23;100.00;58621.06;5102955;28;20321;-51
2022/05/15 07:44:06;;;;;;;3.88;1.80;;;;;;;-145.23;100.00;58621.06;5099378;28;20708;-53
2022/05/15 07:46:32;;;;;;;4.18;1.60;;;;;;;-145.23;100.00;58621.06;5100880;28;20234;-53
2022/05/15 07:48:59;;;;;;;4.20;1.70;;;;;;;-145.23;100.00;58621.06;5104198;28;20710;-52
2022/05/15 07:51:25;;;;;;;2.13;1.42;;;;;;;-145.23;100.00;58621.06;5096140;28;20230;-52
2022/05/15 07:53:51;;;;;;;2.25;1.50;;;;;;;-145.23;100.00;58621.06;5095162;28;20234;-53
2022/05/15 07:56:19;;;;;;;4.90;1.52;;;;;;;-145.23;100.00;58621.06;5094524;28;20229;-51
2022/05/15 07:58:45;;;;;;;4.65;1.63;;;;;;;-145.23;100.00;58621.06;5100828;28;20311;-51
2022/05/15 08:01:12;;;;;;;3.95;1.52;;;;;;;-145.23;100.00;58621.06;5090921;28;20238;-52
2022/05/15 08:03:43;;;;;;;2.40;1.38;;;;;;;-145.23;100.00;58621.06;5101003;28;20225;-52
2022/05/15 08:08:54;;;;;;;4.95;1.73;;;;;;;-145.23;100.00;58621.06;5100774;28;20322;-51
2022/05/15 08:11:26;;;;;;;4.63;1.95;;;;;;;-145.23;100.00;58621.06;5100805;28;20284;-51
2022/05/15 08:13:52;;;;;;;4.10;1.50;;;;;;;-145.23;100.00;58621.06;5103203;28;20282;-53
2022/05/15 08:16:19;;;;;;;6.22;1.90;;;;;;;-145.23;100.00;58621.06;5096206;28;20748;-51
2022/05/15 08:24:14;;;;;;;4.82;1.23;;;;;;;-145.23;100.00;58621.06;5092250;28;20349;-52
2022/05/15 08:26:44;;;;;;;1.55;1.13;;;;;;;-145.23;100.00;58621.06;5095056;28;20276;-52
2022/05/15 08:29:10;;;;;;;3.22;1.52;;;;;;;-145.23;100.00;58621.06;5095333;28;20233;-52
2022/05/15 08:31:38;;;;;;;1.48;1.10;;;;;;;-145.23;100.00;58621.06;5096440;28;20639;-52
2022/05/15 08:34:05;;;;;;;4.47;1.30;;;;;;;-145.23;100.00;58621.06;5096451;28;20250;-52
2022/05/15 08:36:31;;;;;;;2.83;1.00;;;;;;;-145.23;100.00;58621.06;5099822;28;20230;-54
2022/05/15 08:38:57;;;;;;;2.35;0.95;;;;;;;-145.23;100.00;58621.06;5092645;28;20275;-50
2022/05/15 08:41:37;;;;;;;4.07;1.33;;;;;;;-145.23;100.00;58621.06;5107278;27;20750;-52
2022/05/15 08:44:09;;;;;;;1.77;0.98;;;;;;;-145.23;100.00;58621.06;5102906;27;20720;-52
2022/05/15 08:46:39;;;;;;;2.80;1.33;;;;;;;-145.23;100.00;58621.06;5097256;27;20312;-52
2022/05/15 08:49:11;;;;;;;2.28;0.90;;;;;;;-145.23;100.00;58621.06;5089268;28;20321;-53
2022/05/15 08:51:39;;;;;;;2.10;0.98;;;;;;;-145.23;100.00;58621.06;5080709;28;20235;-52
2022/05/15 08:54:07;;;;;;;1.13;0.90;;;;;;;-145.23;100.00;58621.06;5083009;28;20227;-52
2022/05/15 08:56:37;;;;;;;1.50;0.85;;;;;;;-145.23;100.00;58621.06;5076223;28;20235;-52
2022/05/15 08:59:09;;;;;;;3.97;1.27;;;;;;;-145.23;100.00;58621.06;5089578;28;20230;-55
2022/05/15 09:01:37;;;;;;;1.48;0.98;;;;;;;-145.23;100.00;58621.06;5099759;27;20234;-52
2022/05/15 09:04:04;;;;;;;1.75;0.90;;;;;;;-145.23;100.00;58621.06;5081674;27;20227;-53
2022/05/15 09:06:35;;;;;;;2.72;0.90;;;;;;;-145.23;100.00;58621.06;5088786;28;20237;-53
2022/05/15 09:09:16;;;;;;;2.08;1.40;;;;;;;-145.23;100.00;58621.06;5100348;28;20230;-52
2022/05/15 09:11:49;;;;;;;1.90;0.93;;;;;;;-145.23;100.00;58621.06;5103729;28;20287;-51
2022/05/15 09:14:32;;;;;;;2.22;0.77;;;;;;;-145.23;100.00;58621.06;5094276;28;20222;-51
2022/05/15 09:17:00;;;;;;;2.45;1.02;;;;;;;-145.23;100.00;58621.06;5103719;28;20223;-51
2022/05/15 09:19:26;;;;;;;1.88;0.80;;;;;;;-145.23;100.00;58621.06;5098024;27;20230;-52
2022/05/15 09:21:54;;;;;;;3.63;0.93;;;;;;;-145.23;100.00;58621.06;5103959;27;20244;-53
2022/05/15 09:24:29;;;;;;;5.75;1.00;;;;;;;-145.23;100.00;58621.06;5101765;27;20256;-51
2022/05/15 09:27:11;;;;;;;1.35;0.80;;;;;;;-145.23;100.00;58621.06;5105556;28;20264;-51
2022/05/15 09:29:39;;;;;;;2.05;0.80;;;;;;;-145.23;100.00;58621.06;5101720;28;20241;-53
2022/05/15 09:32:15;;;;;;;1.65;0.77;;;;;;;-145.23;100.00;58621.06;5100230;28;20237;-51
2022/05/15 09:34:44;;;;;;;3.38;1.52;;;;;;;-145.23;100.00;58621.06;5095686;28;20234;-52
2022/05/15 09:40:04;;;;;;;1.45;0.90;;;;;;;-145.23;100.00;58621.06;5079794;28;20311;-51
2022/05/15 09:45:21;;;;;;;1.65;0.75;;;;;;;-145.23;100.00;58621.06;5083178;28;20237;-53
2022/05/15 09:48:01;;;;;;;0.88;0.80;;;;;;;-145.23;100.00;58621.06;5082582;28;20279;-52
2022/05/15 09:50:43;;;;;;;0.85;0.70;;;;;;;-145.23;100.00;58621.06;5070223;28;20234;-52
2022/05/15 09:53:12;;;;;;;0.77;0.77;;;;;;;-145.23;100.00;58621.06;5082656;28;20230;-52
2022/05/15 09:55:39;;;;;;;1.30;0.93;;;;;;;-145.23;100.00;58621.06;5077544;28;20235;-52
2022/05/15 09:58:09;;;;;;;1.77;0.98;;;;;;;-145.23;100.00;58621.06;5086651;28;20231;-51
2022/05/15 10:00:38;;;;;;;0.80;0.60;;;;;;;-145.23;100.00;58621.06;5075645;27;20234;-52
2022/05/15 10:03:17;;;;;;;1.45;0.77;;;;;;;-145.23;100.00;58621.06;5083842;28;20309;-52
2022/05/15 10:05:43;;;;;;;2.10;0.93;;;;;;;-145.23;100.00;58621.06;5076503;28;20262;-51
2022/05/15 10:08:22;;;;;;;1.50;1.10;;;;;;;-145.23;100.00;58621.06;5071233;28;20235;-51
2022/05/15 10:10:54;;;;;;;1.33;1.23;;;;;;;-145.23;100.00;58621.06;5078156;28;20288;-52
2022/05/15 10:13:28;;;;;;;1.60;1.10;;;;;;;-145.23;100.00;58621.06;5094974;28;20218;-52
2022/05/15 10:16:02;;;;;;;2.08;0.73;;;;;;;-145.23;100.00;58621.06;5079760;28;20253;-51
2022/05/15 10:18:31;;;;;;;1.10;0.70;;;;;;;-145.23;100.00;58621.06;5086101;28;20234;-51
2022/05/15 10:20:57;;;;;;;1.00;0.60;;;;;;;-145.23;100.00;58621.06;5086746;28;20234;-52
2022/05/15 10:23:28;;;;;;;1.23;0.70;;;;;;;-145.23;100.00;58621.06;5085173;28;20238;-53
2022/05/15 10:26:00;;;;;;;2.15;1.30;;;;;;;-145.23;100.00;58621.06;5084032;28;20291;-50
2022/05/15 10:28:33;;;;;;;1.52;0.88;;;;;;;-145.23;100.00;58621.06;5072305;28;20708;-51
2022/05/15 10:31:04;;;;;;;1.15;0.85;;;;;;;-145.23;100.00;58621.06;5081499;28;20736;-52
2022/05/15 10:33:35;;;;;;;2.53;0.95;;;;;;;-145.23;100.00;58621.06;5083936;28;20234;-53
2022/05/15 10:36:03;;;;;;;0.73;0.57;;;;;;;-145.23;100.00;58621.06;5078999;28;20255;-52
2022/05/15 10:38:43;;;;;;;2.97;1.60;;;;;;;-145.23;100.00;58621.06;5072732;28;20639;-52
2022/05/15 10:41:15;;;;;;;0.88;0.65;;;;;;;-145.23;100.00;58621.06;5082180;28;20493;-51
2022/05/15 10:44:01;;;;;;;1.65;0.73;;;;;;;-145.23;100.00;58621.06;5082327;28;20249;-52
2022/05/15 10:46:34;;;;;;;0.82;0.82;;;;;;;-145.23;100.00;58621.06;5078449;28;20236;-53
2022/05/15 10:49:11;;;;;;;2.08;0.75;;;;;;;-145.23;100.00;58621.06;5076726;28;20311;-53
2022/05/15 10:51:45;;;;;;;1.75;1.10;;;;;;;-145.23;100.00;58621.06;5082545;28;20229;-52
2022/05/15 10:57:22;;;;;;;1.58;0.50;;;;;;;-145.23;100.00;58621.06;5092803;28;20707;-52
2022/05/15 10:59:54;;;;;;;1.38;0.90;;;;;;;-145.23;100.00;58621.06;5101762;28;20712;-52
2022/05/15 11:02:42;;;;;;;2.65;0.90;;;;;;;-145.23;100.00;58621.06;5096229;28;20325;-52
2022/05/15 11:05:11;;;;;;;3.42;0.90;;;;;;;-145.23;100.00;58621.06;5077088;28;20219;-51
2022/05/15 11:07:42;;;;;;;3.50;1.35;;;;;;;-145.23;100.00;58621.06;5077871;28;20258;-52
2022/05/15 11:10:13;;;;;;;0.50;0.50;;;;;;;-145.23;100.00;58621.06;5096569;28;20271;-52
2022/05/15 11:12:45;;;;;;;1.25;0.73;;;;;;;-145.23;100.00;58621.06;5088468;28;20260;-52
2022/05/15 11:15:40;;;;;;;2.95;1.20;;;;;;;-145.23;100.00;58621.06;5087840;28;20223;-53
2022/05/15 11:18:18;;;;;;;1.00;0.70;;;;;;;-145.23;100.00;58621.06;5077930;28;20823;-52
2022/05/15 11:20:47;;;;;;;1.95;0.80;;;;;;;-145.23;100.00;58621.06;5089491;28;20284;-53
2022/05/15 11:23:18;;;;;;;1.23;1.00;;;;;;;-145.23;100.00;58621.06;5088086;28;20292;-53
2022/05/15 11:25:50;;;;;;;1.20;0.40;;;;;;;-145.23;100.00;58621.06;5082029;28;20241;-52
2022/05/15 11:28:22;;;;;;;2.47;1.13;;;;;;;-145.23;100.00;58621.06;5085695;28;20600;-51
2022/05/15 11:30:54;;;;;;;1.50;1.20;;;;;;;-145.23;100.00;58621.06;5087012;28;20283;-52
2022/05/15 11:33:33;;;;;;;1.85;1.20;;;;;;;-145.23;100.00;58621.06;5080486;28;20250;-51
2022/05/15 11:36:10;;;;;;;0.63;0.60;;;;;;;-145.23;100.00;58621.06;5078421;28;20227;-53